createdAt,value
2022-10-25T00:01:25.297Z,10.35
2022-10-25T00:03:52.972Z,5.87
2022-10-25T00:06:20.086Z,7.85
2022-10-25T00:08:46.521Z,5.57
2022-10-25T00:11:27.748Z,6.15
2022-10-25T00:13:56.144Z,4.90
2022-10-25T00:16:26.319Z,5.73
2022-10-25T00:18:53.146Z,5.43
2022-10-25T00:21:19.928Z,4.45
2022-10-25T00:23:46.536Z,3.35
2022-10-25T00:26:13.795Z,6.50
2022-10-25T00:28:40.502Z,5.03
2022-10-25T00:31:09.680Z,6.30
2022-10-25T00:33:37.299Z,5.78
2022-10-25T00:36:10.847Z,5.65
2022-10-25T00:38:37.569Z,4.90
2022-10-25T00:41:05.495Z,4.30
2022-10-25T00:43:39.335Z,4.18
2022-10-25T00:46:14.045Z,8.27
2022-10-25T00:48:44.159Z,4.53
2022-10-25T00:51:10.700Z,4.72
2022-10-25T00:53:37.595Z,7.53
2022-10-25T00:56:13.448Z,5.82
2022-10-25T00:58:41.247Z,3.38
2022-10-25T01:01:10.164Z,6.95
2022-10-25T01:03:39.964Z,4.78
2022-10-25T01:06:12.517Z,4.23
2022-10-25T01:08:41.012Z,6.03
2022-10-25T01:11:07.460Z,4.72
2022-10-25T01:13:33.959Z,4.88
2022-10-25T01:16:32.992Z,3.80
2022-10-25T01:19:28.739Z,8.90
2022-10-25T01:22:03.060Z,7.50
2022-10-25T01:25:04.248Z,2.70
2022-10-25T01:28:09.619Z,6.32
2022-10-25T01:31:18.159Z,4.70
2022-10-25T01:34:12.252Z,4.30
2022-10-25T01:36:38.601Z,4.20
2022-10-25T01:39:29.012Z,4.13
2022-10-25T01:42:08.899Z,5.43
2022-10-25T01:44:54.306Z,5.45
2022-10-25T01:47:25.559Z,5.50
2022-10-25T01:50:02.824Z,4.55
2022-10-25T01:52:29.272Z,5.20
2022-10-25T01:54:55.752Z,5.20
2022-10-25T01:57:31.233Z,2.22
2022-10-25T02:00:09.276Z,6.13
2022-10-25T02:02:54.022Z,4.85
2022-10-25T02:06:01.995Z,6.35
2022-10-25T02:08:41.600Z,6.07
2022-10-25T02:11:13.943Z,5.72
2022-10-25T02:13:57.983Z,6.67
2022-10-25T02:16:28.166Z,4.35
2022-10-25T02:19:07.465Z,5.07
2022-10-25T02:21:36.765Z,2.92
2022-10-25T02:24:12.480Z,6.03
2022-10-25T02:26:41.275Z,9.40
2022-10-25T02:29:09.271Z,6.80
2022-10-25T02:31:37.435Z,3.95
2022-10-25T02:34:04.549Z,12.38
2022-10-25T02:36:31.424Z,4.38
2022-10-25T02:38:59.305Z,4.47
2022-10-25T02:41:25.943Z,6.30
2022-10-25T02:43:52.274Z,3.47
2022-10-25T02:46:21.418Z,6.43
2022-10-25T02:48:48.209Z,4.32
2022-10-25T02:51:15.321Z,7.30
2022-10-25T02:53:42.033Z,5.93
2022-10-25T02:56:12.278Z,3.53
2022-10-25T02:58:41.517Z,4.45
2022-10-25T03:01:08.955Z,5.07
2022-10-25T03:03:35.735Z,4.30
2022-10-25T03:06:02.503Z,6.63
2022-10-25T03:08:29.441Z,5.80
2022-10-25T03:10:56.137Z,3.63
2022-10-25T03:13:22.992Z,2.65
2022-10-25T03:15:49.407Z,5.93
2022-10-25T03:18:15.831Z,4.90
2022-10-25T03:20:42.711Z,4.10
2022-10-25T03:23:09.544Z,5.20
2022-10-25T03:25:35.908Z,4.85
2022-10-25T03:28:02.660Z,5.73
2022-10-25T03:30:30.329Z,6.30
2022-10-25T03:32:57.942Z,3.03
2022-10-25T03:35:24.891Z,2.67
2022-10-25T03:37:52.576Z,4.90
2022-10-25T03:40:19.816Z,5.93
2022-10-25T03:42:46.286Z,6.05
2022-10-25T03:45:12.923Z,5.18
2022-10-25T03:47:39.676Z,3.28
2022-10-25T03:50:07.165Z,4.85
2022-10-25T03:52:33.794Z,5.07
2022-10-25T03:55:00.157Z,4.35
2022-10-25T03:57:26.845Z,3.08
2022-10-25T03:59:53.247Z,7.47
2022-10-25T04:02:19.597Z,2.53
2022-10-25T04:04:45.944Z,4.07
2022-10-25T04:07:12.344Z,7.93
2022-10-25T04:09:38.721Z,5.32
2022-10-25T04:12:05.243Z,6.63
2022-10-25T04:14:31.623Z,4.15
2022-10-25T04:16:58.039Z,5.50
2022-10-25T04:19:24.418Z,4.13
2022-10-25T04:21:50.829Z,4.10
2022-10-25T04:24:17.362Z,7.72
2022-10-25T04:26:43.905Z,6.68
2022-10-25T04:29:11.123Z,7.47
2022-10-25T04:31:37.472Z,4.13
2022-10-25T04:34:03.897Z,4.13
2022-10-25T04:36:31.077Z,4.45
2022-10-25T04:38:57.739Z,9.60
2022-10-25T04:41:24.429Z,8.13
2022-10-25T04:43:52.188Z,8.38
2022-10-25T04:46:19.878Z,7.07
2022-10-25T04:48:46.584Z,4.50
2022-10-25T04:51:13.311Z,6.80
2022-10-25T04:53:39.974Z,6.57
2022-10-25T04:56:10.942Z,11.50
2022-10-25T04:58:37.393Z,6.88
2022-10-25T05:01:10.337Z,7.53
2022-10-25T05:03:36.915Z,7.68
2022-10-25T05:06:15.931Z,5.77
2022-10-25T05:08:45.850Z,7.10
2022-10-25T05:11:13.958Z,5.15
2022-10-25T05:13:41.583Z,7.13
2022-10-25T05:16:11.140Z,8.70
2022-10-25T05:18:37.528Z,5.03
2022-10-25T05:21:06.112Z,8.00
2022-10-25T05:23:34.235Z,9.88
2022-10-25T05:26:06.170Z,7.35
2022-10-25T05:28:34.007Z,8.10
2022-10-25T05:31:13.077Z,6.00
2022-10-25T05:33:39.709Z,6.72
2022-10-25T05:36:06.275Z,7.25
2022-10-25T05:38:35.633Z,4.22
2022-10-25T05:41:04.758Z,9.32
2022-10-25T05:43:31.406Z,7.77
2022-10-25T05:46:04.060Z,6.72
2022-10-25T05:48:31.172Z,7.60
2022-10-25T05:51:32.977Z,9.32
2022-10-25T05:54:10.441Z,4.38
2022-10-25T05:56:37.470Z,5.33
2022-10-25T05:59:08.711Z,7.82
2022-10-25T06:01:36.439Z,8.45
2022-10-25T06:04:02.984Z,6.32
2022-10-25T06:06:29.431Z,8.15
2022-10-25T06:09:00.792Z,5.87
2022-10-25T06:11:28.617Z,6.28
2022-10-25T06:13:55.121Z,7.18
2022-10-25T06:16:22.020Z,8.13
2022-10-25T06:18:48.521Z,5.97
2022-10-25T06:21:23.497Z,7.03
2022-10-25T06:23:50.001Z,9.07
2022-10-25T06:26:19.714Z,6.60
2022-10-25T06:28:46.102Z,6.70
2022-10-25T06:31:15.654Z,4.80
2022-10-25T06:33:42.740Z,8.60
2022-10-25T06:36:16.240Z,6.35
2022-10-25T06:38:43.832Z,4.07
2022-10-25T06:41:14.477Z,8.68
2022-10-25T06:43:40.891Z,6.18
2022-10-25T06:46:21.582Z,3.47
2022-10-25T06:48:48.596Z,5.78
2022-10-25T06:51:15.271Z,6.80
2022-10-25T06:53:41.796Z,5.30
2022-10-25T06:56:14.238Z,5.03
2022-10-25T06:58:41.580Z,3.93
2022-10-25T07:01:11.309Z,4.63
2022-10-25T07:03:38.181Z,9.10
2022-10-25T07:06:06.272Z,6.05
2022-10-25T07:08:33.767Z,5.32
2022-10-25T07:11:00.492Z,7.37
2022-10-25T07:13:26.897Z,10.52
2022-10-25T07:15:53.568Z,6.15
2022-10-25T07:18:19.923Z,9.40
2022-10-25T07:20:46.861Z,10.35
2022-10-25T07:23:13.363Z,7.60
2022-10-25T07:25:39.729Z,6.28
2022-10-25T07:28:06.081Z,7.53
2022-10-25T07:30:32.458Z,6.07
2022-10-25T07:32:58.805Z,9.32
2022-10-25T07:35:25.154Z,5.33
2022-10-25T07:37:53.010Z,5.10
2022-10-25T07:40:19.405Z,3.15
2022-10-25T07:42:45.742Z,6.25
2022-10-25T07:45:12.157Z,4.00
2022-10-25T07:47:38.518Z,5.77
2022-10-25T07:50:05.217Z,5.07
2022-10-25T07:52:31.579Z,5.85
2022-10-25T07:54:57.939Z,4.25
2022-10-25T07:57:24.297Z,9.23
2022-10-25T07:59:50.637Z,11.17
2022-10-25T08:02:17.057Z,5.82
2022-10-25T08:04:44.104Z,3.60
2022-10-25T08:07:10.459Z,3.90
2022-10-25T08:09:38.738Z,8.20
2022-10-25T08:12:05.522Z,3.77
2022-10-25T08:14:33.848Z,7.60
2022-10-25T08:17:02.754Z,3.03
2022-10-25T08:19:29.098Z,3.92
2022-10-25T08:21:55.448Z,5.57
2022-10-25T08:24:21.834Z,5.10
2022-10-25T08:26:48.203Z,5.68
2022-10-25T08:29:14.617Z,3.90
2022-10-25T08:31:41.129Z,7.05
2022-10-25T08:34:07.688Z,4.40
2022-10-25T08:36:34.071Z,6.47
2022-10-25T08:39:00.472Z,3.75
2022-10-25T08:41:46.839Z,5.30
2022-10-25T08:44:13.156Z,4.32
2022-10-25T08:47:01.920Z,7.05
2022-10-25T08:49:50.022Z,8.47
2022-10-25T08:52:30.043Z,4.65
2022-10-25T08:55:01.812Z,5.43
2022-10-25T08:57:34.614Z,6.97
2022-10-25T09:00:07.279Z,6.40
2022-10-25T09:02:47.780Z,5.97
2022-10-25T09:05:24.760Z,4.63
2022-10-25T09:08:22.215Z,3.67
2022-10-25T09:11:04.295Z,5.50
2022-10-25T09:13:54.672Z,4.63
2022-10-25T09:16:36.034Z,5.80
2022-10-25T09:19:07.392Z,5.88
2022-10-25T09:21:38.509Z,5.50
2022-10-25T09:24:21.967Z,3.78
2022-10-25T09:27:04.641Z,6.05
2022-10-25T09:29:37.023Z,8.73
2022-10-25T09:32:10.641Z,6.80
2022-10-25T09:34:37.327Z,5.03
2022-10-25T09:37:16.565Z,4.53
2022-10-25T09:39:49.096Z,8.40
2022-10-25T09:42:58.250Z,7.93
2022-10-25T09:45:44.635Z,3.95
2022-10-25T09:48:27.243Z,9.50
2022-10-25T09:51:14.748Z,3.63
2022-10-25T09:53:43.331Z,5.70
2022-10-25T09:56:09.725Z,6.70
2022-10-25T09:58:41.245Z,4.95
2022-10-25T10:01:15.622Z,7.32
2022-10-25T10:03:43.770Z,4.72
2022-10-25T10:06:26.492Z,4.53
2022-10-25T10:09:05.989Z,5.50
2022-10-25T10:11:35.025Z,6.22
2022-10-25T10:14:17.993Z,3.25
2022-10-25T10:16:48.499Z,3.70
2022-10-25T10:19:20.997Z,5.78
2022-10-25T10:22:09.718Z,6.53
2022-10-25T10:24:46.468Z,4.43
2022-10-25T10:27:21.795Z,4.90
2022-10-25T10:30:07.880Z,4.20
2022-10-25T10:35:34.301Z,4.90
2022-10-25T10:38:28.819Z,4.72
2022-10-25T10:41:13.427Z,2.88
2022-10-25T10:43:40.222Z,3.75
2022-10-25T10:46:17.753Z,6.30
2022-10-25T10:48:45.909Z,5.40
2022-10-25T10:51:42.992Z,3.97
2022-10-25T10:54:18.655Z,4.35
2022-10-25T10:56:53.709Z,3.35
2022-10-25T10:59:37.931Z,5.47
2022-10-25T11:02:23.417Z,3.37
2022-10-25T11:04:51.759Z,4.03
2022-10-25T11:07:26.008Z,7.10
2022-10-25T11:09:52.400Z,3.28
2022-10-25T11:12:18.830Z,3.55
2022-10-25T11:14:45.370Z,3.87
2022-10-25T11:17:35.958Z,3.42
2022-10-25T11:20:27.511Z,3.45
2022-10-25T11:23:02.718Z,2.80
2022-10-25T11:25:44.059Z,3.03
2022-10-25T11:28:29.214Z,3.43
2022-10-25T11:30:58.512Z,3.45
2022-10-25T11:33:27.954Z,2.05
2022-10-25T11:36:01.720Z,3.55
2022-10-25T11:38:52.152Z,2.65
2022-10-25T11:41:26.735Z,2.70
2022-10-25T11:44:04.889Z,5.63
2022-10-25T11:46:46.428Z,6.03
2022-10-25T11:49:45.987Z,6.18
2022-10-25T11:52:39.137Z,2.47
2022-10-25T11:55:08.302Z,3.27
2022-10-25T11:58:01.295Z,3.55
2022-10-25T12:00:41.097Z,3.03
2022-10-25T12:03:32.345Z,4.90
2022-10-25T12:06:38.402Z,1.60
2022-10-25T12:09:52.538Z,4.93
2022-10-25T12:12:24.089Z,4.00
2022-10-25T12:14:55.219Z,2.97
2022-10-25T12:17:27.486Z,2.95
2022-10-25T12:19:57.520Z,4.18
2022-10-25T12:22:36.672Z,6.10
2022-10-25T12:25:08.188Z,3.38
2022-10-25T12:27:36.376Z,4.22
2022-10-25T12:30:14.207Z,3.42
2022-10-25T12:32:45.617Z,4.25
2022-10-25T12:35:36.238Z,3.93
2022-10-25T12:38:11.934Z,3.38
2022-10-25T12:40:45.061Z,3.88
2022-10-25T12:43:33.742Z,6.07
2022-10-25T12:46:37.428Z,5.03
2022-10-25T12:49:29.248Z,3.70
2022-10-25T12:52:23.693Z,2.75
2022-10-25T12:55:17.925Z,8.48
2022-10-25T12:58:20.886Z,2.30
2022-10-25T13:01:04.571Z,2.05
2022-10-25T13:03:45.916Z,0.97
2022-10-25T13:06:20.567Z,2.05
2022-10-25T13:08:47.497Z,4.40
2022-10-25T13:11:14.396Z,2.55
2022-10-25T13:13:50.524Z,3.60
2022-10-25T13:16:29.788Z,3.40
2022-10-25T13:19:49.366Z,4.50
2022-10-25T13:22:11.665Z,2.17
2022-10-25T13:24:43.228Z,2.17
2022-10-25T13:27:12.350Z,2.15
2022-10-25T13:29:57.687Z,4.27
2022-10-25T13:32:24.722Z,5.57
2022-10-25T13:34:51.482Z,2.15
2022-10-25T13:37:33.403Z,1.98
2022-10-25T13:40:05.802Z,2.90
2022-10-25T13:42:37.496Z,5.40
2022-10-25T13:45:03.817Z,2.35
2022-10-25T13:47:54.078Z,1.90
2022-10-25T13:50:28.868Z,1.45
2022-10-25T13:53:20.009Z,3.67
2022-10-25T13:55:57.451Z,1.80
2022-10-25T13:58:32.006Z,2.90
2022-10-25T14:01:18.784Z,1.02
2022-10-25T14:03:54.055Z,1.55
2022-10-25T14:06:23.758Z,4.57
2022-10-25T14:08:55.988Z,6.07
2022-10-25T14:11:47.155Z,3.60
2022-10-25T14:14:33.743Z,3.00
2022-10-25T14:17:15.412Z,3.30
2022-10-25T14:19:55.122Z,4.72
2022-10-25T14:22:33.282Z,2.97
2022-10-25T14:25:04.363Z,2.17
2022-10-25T14:27:35.904Z,3.55
2022-10-25T14:30:22.177Z,3.30
2022-10-25T14:32:55.341Z,3.75
2022-10-25T14:35:23.601Z,5.57
2022-10-25T14:37:50.380Z,3.50
2022-10-25T14:40:23.538Z,1.85
2022-10-25T14:42:50.663Z,2.80
2022-10-25T14:45:25.557Z,3.05
2022-10-25T14:47:52.787Z,2.93
2022-10-25T14:50:25.376Z,4.32
2022-10-25T14:52:52.426Z,2.60
2022-10-25T14:55:28.140Z,3.95
2022-10-25T14:57:55.236Z,4.65
2022-10-25T15:00:23.875Z,3.90
2022-10-25T15:02:55.752Z,3.45
2022-10-25T15:05:24.884Z,4.38
2022-10-25T15:07:59.912Z,2.33
2022-10-25T15:10:44.928Z,2.17
2022-10-25T15:13:20.099Z,4.83
2022-10-25T15:15:48.700Z,3.15
2022-10-25T15:18:27.013Z,2.30
2022-10-25T15:21:08.645Z,3.97
2022-10-25T15:23:36.474Z,4.90
2022-10-25T15:26:27.053Z,6.53
2022-10-25T15:29:01.876Z,5.97
2022-10-25T15:31:30.713Z,4.43
2022-10-25T15:34:02.613Z,5.82
2022-10-25T15:36:31.743Z,4.65
2022-10-25T15:39:10.534Z,3.63
2022-10-25T15:41:39.267Z,3.50
2022-10-25T15:44:05.633Z,5.15
2022-10-25T15:46:33.994Z,7.43
2022-10-25T15:49:04.110Z,6.22
2022-10-25T15:51:33.367Z,6.43
2022-10-25T15:53:59.782Z,4.68
2022-10-25T15:56:26.107Z,6.93
2022-10-25T15:58:52.550Z,5.03
2022-10-25T16:01:19.333Z,9.70
2022-10-25T16:03:45.952Z,6.23
2022-10-25T16:06:14.076Z,6.55
2022-10-25T16:08:41.280Z,6.55
2022-10-25T16:11:14.728Z,4.97
2022-10-25T16:13:43.161Z,5.57
2022-10-25T16:16:39.818Z,5.63
2022-10-25T16:19:13.413Z,4.22
2022-10-25T16:21:39.740Z,6.40
2022-10-25T16:24:06.136Z,10.02
2022-10-25T16:26:40.851Z,7.90
2022-10-25T16:29:07.387Z,7.87
2022-10-25T16:31:33.783Z,8.57
2022-10-25T16:34:00.127Z,5.80
2022-10-25T16:36:26.471Z,7.50
2022-10-25T16:38:52.816Z,8.77
2022-10-25T16:41:23.612Z,7.87
2022-10-25T16:43:50.323Z,9.75
2022-10-25T16:46:16.682Z,8.45
2022-10-25T16:48:43.038Z,8.70
2022-10-25T16:51:14.337Z,8.43
2022-10-25T16:53:41.587Z,8.40
2022-10-25T16:56:11.225Z,9.50
2022-10-25T16:58:38.476Z,12.73
2022-10-25T17:01:20.347Z,10.63
2022-10-25T17:03:48.426Z,8.60
2022-10-25T17:06:39.679Z,7.07
2022-10-25T17:09:01.186Z,5.45
2022-10-25T17:11:27.569Z,8.63
2022-10-25T17:13:53.953Z,9.93
2022-10-25T17:16:20.425Z,6.78
2022-10-25T17:18:46.761Z,6.40
2022-10-25T17:21:15.129Z,6.85
2022-10-25T17:23:42.139Z,11.90
2022-10-25T17:26:09.218Z,12.43
2022-10-25T17:28:37.798Z,11.18
2022-10-25T17:31:11.108Z,13.40
2022-10-25T17:33:37.588Z,8.65
2022-10-25T17:36:16.152Z,8.57
2022-10-25T17:38:43.294Z,8.18
2022-10-25T17:41:10.641Z,8.57
2022-10-25T17:43:38.672Z,5.90
2022-10-25T17:46:14.481Z,7.05
2022-10-25T17:48:40.829Z,5.10
2022-10-25T17:51:09.301Z,5.15
2022-10-25T17:53:35.777Z,9.48
2022-10-25T17:56:18.652Z,7.07
2022-10-25T17:58:47.189Z,9.15
2022-10-25T18:01:19.332Z,7.45
2022-10-25T18:03:46.110Z,5.43
2022-10-25T18:06:15.729Z,5.75
2022-10-25T18:08:42.456Z,5.60
2022-10-25T18:11:22.158Z,3.67
2022-10-25T18:14:15.041Z,7.72
2022-10-25T18:16:41.501Z,5.03
2022-10-25T18:19:12.522Z,7.05
2022-10-25T18:21:38.875Z,7.90
2022-10-25T18:24:05.487Z,9.48
2022-10-25T18:26:32.687Z,6.78
2022-10-25T18:28:59.367Z,6.47
2022-10-25T18:31:27.071Z,7.57
2022-10-25T18:33:58.951Z,6.00
2022-10-25T18:36:27.443Z,10.63
2022-10-25T18:38:54.674Z,7.10
2022-10-25T18:41:26.923Z,8.82
2022-10-25T18:43:54.829Z,9.45
2022-10-25T18:46:21.887Z,7.07
2022-10-25T18:48:52.299Z,8.68
2022-10-25T18:51:20.084Z,6.95
2022-10-25T18:53:46.721Z,7.18
2022-10-25T18:56:19.538Z,9.50
2022-10-25T18:58:48.251Z,10.37
2022-10-25T19:01:17.260Z,15.15
2022-10-25T19:03:43.939Z,15.65
2022-10-25T19:06:10.796Z,15.48
2022-10-25T19:08:37.761Z,16.80
2022-10-25T19:11:09.758Z,17.43
2022-10-25T19:13:36.446Z,18.73
2022-10-25T19:16:03.341Z,17.05
2022-10-25T19:18:30.922Z,14.95
2022-10-25T19:21:02.404Z,10.27
2022-10-25T19:23:29.240Z,13.87
2022-10-25T19:25:55.852Z,8.30
2022-10-25T19:28:22.856Z,8.32
2022-10-25T19:30:49.204Z,6.85
2022-10-25T19:33:15.537Z,7.88
2022-10-25T19:35:41.924Z,6.53
2022-10-25T19:38:08.255Z,7.13
2022-10-25T19:40:34.588Z,7.20
2022-10-25T19:43:00.939Z,9.43
2022-10-25T19:45:27.308Z,9.98
2022-10-25T19:47:56.828Z,12.93
2022-10-25T19:50:23.899Z,11.38
2022-10-25T19:52:51.121Z,10.30
2022-10-25T19:55:17.634Z,6.60
2022-10-25T19:57:44.112Z,11.20
2022-10-25T20:00:13.487Z,7.13
2022-10-25T20:02:40.664Z,7.57
2022-10-25T20:05:07.465Z,8.73
2022-10-25T20:07:33.924Z,7.55
2022-10-25T20:10:00.274Z,9.43
2022-10-25T20:12:26.637Z,9.97
2022-10-25T20:14:52.998Z,12.27
2022-10-25T20:17:19.419Z,7.95
2022-10-25T20:19:45.777Z,13.55
2022-10-25T20:22:12.117Z,6.57
2022-10-25T20:24:38.455Z,5.47
2022-10-25T20:27:04.909Z,5.07
2022-10-25T20:29:31.247Z,4.50
2022-10-25T20:31:57.653Z,6.32
2022-10-25T20:34:24.241Z,7.90
2022-10-25T20:36:50.607Z,6.00
2022-10-25T20:39:17.350Z,10.25
2022-10-25T20:41:44.015Z,6.07
2022-10-25T20:44:10.522Z,6.88
2022-10-25T20:46:36.962Z,7.35
2022-10-25T20:49:04.718Z,4.90
2022-10-25T20:51:31.173Z,6.18
2022-10-25T20:53:57.590Z,3.55
2022-10-25T20:56:24.526Z,6.90
2022-10-25T20:58:51.377Z,4.80
2022-10-25T21:01:18.014Z,4.97
2022-10-25T21:03:44.484Z,4.07
2022-10-25T21:06:12.624Z,5.32
2022-10-25T21:08:39.603Z,5.30
2022-10-25T21:11:09.351Z,6.40
2022-10-25T21:13:37.010Z,5.27
2022-10-25T21:16:08.435Z,7.15
2022-10-25T21:18:36.069Z,12.98
2022-10-25T21:21:04.787Z,8.18
2022-10-25T21:23:32.042Z,6.07
2022-10-25T21:26:04.442Z,7.40
2022-10-25T21:28:32.821Z,6.20
2022-10-25T21:31:04.018Z,5.63
2022-10-25T21:33:30.585Z,5.13
2022-10-25T21:36:09.087Z,5.30
2022-10-25T21:38:35.745Z,5.97
2022-10-25T21:41:09.649Z,8.55
2022-10-25T21:43:37.505Z,4.38
2022-10-25T21:46:04.808Z,6.25
2022-10-25T21:48:31.163Z,4.03
2022-10-25T21:51:00.410Z,5.47
2022-10-25T21:53:26.802Z,7.43
2022-10-25T21:56:31.275Z,5.20
2022-10-25T21:58:59.337Z,3.97
2022-10-25T22:01:28.666Z,4.25
2022-10-25T22:03:55.357Z,7.60
2022-10-25T22:06:23.651Z,6.07
2022-10-25T22:08:50.533Z,6.68
2022-10-25T22:11:22.603Z,4.88
2022-10-25T22:13:54.525Z,4.25
2022-10-25T22:16:21.080Z,4.10
2022-10-25T22:18:57.555Z,4.03
2022-10-25T22:21:25.680Z,4.78
2022-10-25T22:23:52.046Z,3.63
2022-10-25T22:26:22.607Z,7.18
2022-10-25T22:28:53.856Z,3.90
2022-10-25T22:31:21.318Z,3.00
2022-10-25T22:33:54.377Z,4.53
2022-10-25T22:36:22.080Z,7.18
2022-10-25T22:38:48.562Z,5.47
2022-10-25T22:41:17.585Z,4.00
2022-10-25T22:43:44.970Z,3.58
2022-10-25T22:46:13.929Z,5.95
2022-10-25T22:48:41.961Z,4.03
2022-10-25T22:51:09.393Z,3.60
2022-10-25T22:53:36.970Z,3.40
2022-10-25T22:56:07.779Z,6.80
2022-10-25T22:58:35.465Z,5.85
2022-10-25T23:01:16.043Z,4.07
2022-10-25T23:03:46.467Z,1.50
2022-10-25T23:06:16.608Z,4.77
2022-10-25T23:08:43.397Z,6.47
2022-10-25T23:11:16.102Z,5.68
2022-10-25T23:13:42.735Z,5.18
2022-10-25T23:16:10.023Z,4.53
2022-10-25T23:18:37.194Z,4.67
2022-10-25T23:21:06.965Z,4.45
2022-10-25T23:23:35.460Z,2.20
2022-10-25T23:26:02.443Z,4.43
2022-10-25T23:28:31.490Z,4.53
2022-10-25T23:31:08.227Z,2.07
2022-10-25T23:33:35.239Z,5.50
2022-10-25T23:36:10.858Z,1.63
2022-10-25T23:38:37.515Z,2.67
2022-10-25T23:41:04.563Z,5.63
2022-10-25T23:43:31.551Z,3.17
2022-10-25T23:45:58.359Z,6.70
2022-10-25T23:48:25.029Z,5.50
2022-10-25T23:50:56.432Z,4.25
2022-10-25T23:53:22.899Z,2.40
2022-10-25T23:55:49.262Z,4.23
2022-10-25T23:58:15.629Z,3.30
